Time;durP1;ratioP1;P1;durP2;ratioP2;P2;SDS_P1;SDS_P2;PMS_P1;PMS_P2;Temp;Humidity;BMP_temperature;BMP_pressure;BME280_temperature;BME280_humidity;BME280_pressure;Samples;Min_cycle;Max_cycle;Signal;HPM_P1;HPM_P2
2023/05/31 00:02:25;;;;;;;11.17;8.33;;;13.60;99.90;;;;;;5048234;28;20416;-69
2023/05/31 00:04:50;;;;;;;11.23;8.37;;;13.60;99.90;;;;;;5041730;28;20504;-70
2023/05/31 00:07:16;;;;;;;10.50;9.40;;;13.70;99.90;;;;;;5028381;28;20198;-69
2023/05/31 00:09:42;;;;;;;13.93;9.60;;;13.60;99.90;;;;;;5028034;28;20276;-69
2023/05/31 00:12:08;;;;;;;12.00;10.03;;;13.60;99.90;;;;;;5028264;28;20627;-69
2023/05/31 00:14:33;;;;;;;11.00;9.90;;;13.60;99.90;;;;;;5027976;28;20511;-69
2023/05/31 00:16:59;;;;;;;13.17;9.60;;;13.50;99.90;;;;;;5027875;28;20433;-68
2023/05/31 00:19:25;;;;;;;11.13;9.00;;;13.50;99.90;;;;;;5027779;28;20202;-69
2023/05/31 00:21:50;;;;;;;10.87;9.23;;;13.50;99.90;;;;;;5028184;28;20177;-69
2023/05/31 00:24:17;;;;;;;10.60;9.10;;;13.40;99.90;;;;;;5027988;28;20175;-69
2023/05/31 00:26:42;;;;;;;13.03;9.67;;;13.40;99.90;;;;;;5027868;28;20222;-68
2023/05/31 00:29:08;;;;;;;12.40;10.30;;;13.50;99.90;;;;;;5027797;28;20729;-69
2023/05/31 00:31:34;;;;;;;9.90;8.90;;;13.50;99.90;;;;;;5043793;28;20210;-68
2023/05/31 00:33:59;;;;;;;11.30;9.20;;;13.60;99.90;;;;;;5047533;28;20181;-69
2023/05/31 00:36:25;;;;;;;10.47;9.40;;;13.50;99.90;;;;;;5048000;28;20277;-69
2023/05/31 00:38:51;;;;;;;13.93;10.63;;;13.40;99.90;;;;;;5046239;28;20177;-69
2023/05/31 00:41:20;;;;;;;10.60;9.13;;;13.40;99.90;;;;;;5047710;28;20192;-69
2023/05/31 00:43:45;;;;;;;12.30;10.77;;;13.40;99.90;;;;;;5047521;28;20186;-69
2023/05/31 00:46:27;;;;;;;14.17;10.43;;;13.40;99.90;;;;;;5047507;28;20499;-69
2023/05/31 00:48:56;;;;;;;13.13;10.43;;;13.40;99.90;;;;;;5047578;28;20416;-68
2023/05/31 00:51:23;;;;;;;12.13;10.83;;;13.40;99.90;;;;;;5047580;28;20448;-68
2023/05/31 00:53:50;;;;;;;12.10;10.80;;;13.30;99.90;;;;;;5047513;28;20923;-68
2023/05/31 00:56:18;;;;;;;11.57;10.37;;;13.30;99.90;;;;;;5047537;28;20407;-69
2023/05/31 00:58:45;;;;;;;12.00;10.67;;;13.30;99.90;;;;;;5047409;28;20781;-68
2023/05/31 01:01:13;;;;;;;12.00;10.50;;;13.20;99.90;;;;;;5047444;28;20427;-69
2023/05/31 01:03:39;;;;;;;12.57;10.93;;;13.20;99.90;;;;;;5047228;28;20495;-69
2023/05/31 01:06:05;;;;;;;11.40;9.90;;;13.10;99.90;;;;;;5030583;28;20883;-69
2023/05/31 01:08:32;;;;;;;11.90;10.00;;;13.10;99.90;;;;;;5029793;28;20424;-68
2023/05/31 01:11:06;;;;;;;11.90;10.67;;;13.00;99.90;;;;;;5030828;28;20457;-70
2023/05/31 01:13:42;;;;;;;13.20;11.83;;;13.10;99.90;;;;;;5031039;28;20405;-69
2023/05/31 01:16:18;;;;;;;14.13;10.60;;;13.00;99.90;;;;;;5031113;28;20424;-69
2023/05/31 01:18:54;;;;;;;12.77;11.23;;;13.00;99.90;;;;;;5031002;28;20459;-69
2023/05/31 01:21:27;;;;;;;13.00;11.60;;;13.00;99.90;;;;;;5030895;28;20539;-69
2023/05/31 01:24:19;;;;;;;13.30;11.90;;;13.00;99.90;;;;;;5030803;28;20425;-69
2023/05/31 01:26:49;;;;;;;14.03;11.70;;;13.00;99.90;;;;;;5030715;28;21225;-70
2023/05/31 01:29:24;;;;;;;15.37;12.10;;;12.90;99.90;;;;;;5030830;28;21013;-69
2023/05/31 01:31:51;;;;;;;14.13;12.30;;;12.90;99.90;;;;;;5049062;28;20446;-69
2023/05/31 01:34:16;;;;;;;12.53;11.23;;;12.90;99.90;;;;;;5050613;28;20773;-69
2023/05/31 01:36:42;;;;;;;13.90;12.13;;;12.90;99.90;;;;;;5050635;28;20432;-68
2023/05/31 01:39:10;;;;;;;13.17;11.20;;;13.00;99.90;;;;;;5050298;28;20177;-69
2023/05/31 01:41:41;;;;;;;15.90;12.73;;;13.00;99.90;;;;;;5050396;28;20178;-69
2023/05/31 01:44:09;;;;;;;14.40;12.30;;;13.00;99.90;;;;;;5050346;28;20412;-69
2023/05/31 01:46:34;;;;;;;14.93;12.73;;;12.90;99.90;;;;;;5049129;28;20474;-69
2023/05/31 01:49:01;;;;;;;13.33;11.47;;;12.90;99.90;;;;;;5050772;28;20428;-68
2023/05/31 01:51:30;;;;;;;13.73;11.97;;;12.80;99.90;;;;;;5049968;28;20224;-69
2023/05/31 01:53:56;;;;;;;15.27;12.83;;;12.80;99.90;;;;;;5050268;28;20412;-68
2023/05/31 01:56:24;;;;;;;14.23;12.73;;;12.80;99.90;;;;;;5050207;28;20578;-68
2023/05/31 01:58:51;;;;;;;13.53;12.10;;;12.80;99.90;;;;;;5050256;28;20407;-69
2023/05/31 02:01:18;;;;;;;14.10;12.70;;;12.70;99.90;;;;;;5050159;28;20759;-69
2023/05/31 02:03:44;;;;;;;13.67;12.23;;;12.70;99.90;;;;;;5050054;28;20424;-68
2023/05/31 02:06:13;;;;;;;15.87;13.50;;;12.70;99.90;;;;;;5032336;28;20441;-69
2023/05/31 02:08:42;;;;;;;13.70;11.90;;;12.60;99.90;;;;;;5030063;28;20424;-69
2023/05/31 02:11:08;;;;;;;15.10;13.50;;;12.60;99.90;;;;;;5029854;28;20475;-69
2023/05/31 02:13:34;;;;;;;14.97;13.47;;;12.60;99.90;;;;;;5029805;28;20409;-69
2023/05/31 02:16:00;;;;;;;14.53;12.97;;;12.60;99.90;;;;;;5029926;28;20501;-69
2023/05/31 02:18:26;;;;;;;14.30;12.40;;;12.50;99.90;;;;;;5029248;28;20493;-69
2023/05/31 02:20:52;;;;;;;13.87;12.37;;;12.50;99.90;;;;;;5029103;28;20544;-68
2023/05/31 02:23:19;;;;;;;13.37;12.07;;;12.50;99.90;;;;;;5028378;28;20413;-69
2023/05/31 02:25:49;;;;;;;14.43;12.90;;;12.50;99.90;;;;;;5029850;28;20429;-68
2023/05/31 02:28:15;;;;;;;13.90;12.13;;;12.50;99.90;;;;;;5029581;28;20531;-69
2023/05/31 02:30:41;;;;;;;14.80;13.20;;;12.50;99.90;;;;;;5038017;28;20470;-69
2023/05/31 02:33:08;;;;;;;15.80;11.73;;;12.40;99.90;;;;;;5049368;28;20439;-68
2023/05/31 02:35:34;;;;;;;14.27;12.30;;;12.30;99.90;;;;;;5049532;28;20462;-68
2023/05/31 02:38:00;;;;;;;14.47;12.93;;;12.30;99.90;;;;;;5049321;28;20440;-69
2023/05/31 02:40:26;;;;;;;14.67;12.20;;;12.40;99.90;;;;;;5049237;28;20416;-69
2023/05/31 02:42:52;;;;;;;13.60;12.20;;;12.30;99.90;;;;;;5049378;28;20412;-69
2023/05/31 02:45:18;;;;;;;16.40;14.23;;;12.30;99.90;;;;;;5049252;28;20181;-69
2023/05/31 02:47:44;;;;;;;14.53;12.50;;;12.30;99.90;;;;;;5048994;28;20472;-69
2023/05/31 02:50:10;;;;;;;16.80;12.67;;;12.40;99.90;;;;;;5049371;28;20305;-68
2023/05/31 02:52:37;;;;;;;14.53;12.30;;;12.40;99.90;;;;;;5049156;28;20228;-69
2023/05/31 02:55:03;;;;;;;14.07;12.00;;;12.40;99.90;;;;;;5049185;28;20511;-68
2023/05/31 02:57:29;;;;;;;14.17;12.20;;;12.50;99.90;;;;;;5048542;28;20448;-69
2023/05/31 02:59:57;;;;;;;13.93;12.10;;;12.50;99.90;;;;;;5047686;28;20413;-68
2023/05/31 03:02:22;;;;;;;13.20;11.80;;;12.50;99.90;;;;;;5048850;28;20850;-70
2023/05/31 03:04:48;;;;;;;14.43;12.90;;;12.50;99.90;;;;;;5041741;28;20487;-69
2023/05/31 03:07:14;;;;;;;13.80;11.90;;;12.50;99.90;;;;;;5028895;28;20563;-68
2023/05/31 03:09:40;;;;;;;13.60;12.20;;;12.50;99.90;;;;;;5028888;28;20197;-69
2023/05/31 03:12:06;;;;;;;13.40;11.87;;;12.50;99.90;;;;;;5028935;28;20925;-68
2023/05/31 03:14:32;;;;;;;12.83;11.50;;;12.50;99.90;;;;;;5028834;28;20555;-69
2023/05/31 03:16:58;;;;;;;13.20;11.40;;;12.40;99.90;;;;;;5028656;28;20833;-68
2023/05/31 03:19:24;;;;;;;13.33;11.70;;;12.40;99.90;;;;;;5028558;28;20416;-69
2023/05/31 03:21:49;;;;;;;14.40;12.30;;;12.30;99.90;;;;;;5028603;28;20543;-69
2023/05/31 03:24:15;;;;;;;13.30;11.40;;;12.30;99.90;;;;;;5028704;28;20686;-69
2023/05/31 03:26:41;;;;;;;12.90;11.47;;;12.30;99.90;;;;;;5027193;28;20741;-69
2023/05/31 03:29:07;;;;;;;13.63;11.73;;;12.40;99.90;;;;;;5028786;28;20269;-69
2023/05/31 03:31:32;;;;;;;12.80;11.37;;;12.40;99.90;;;;;;5043830;28;20216;-69
2023/05/31 03:33:59;;;;;;;13.57;11.90;;;12.40;99.90;;;;;;5048454;28;20177;-69
2023/05/31 03:36:24;;;;;;;12.97;11.40;;;12.40;99.90;;;;;;5048429;28;20205;-69
2023/05/31 03:38:50;;;;;;;12.60;10.40;;;12.50;99.90;;;;;;5048181;28;20904;-69
2023/05/31 03:41:16;;;;;;;14.50;11.43;;;12.50;99.90;;;;;;5048266;28;20188;-69
2023/05/31 03:43:42;;;;;;;14.17;11.70;;;12.50;99.90;;;;;;5048235;28;20185;-69
2023/05/31 03:46:08;;;;;;;13.70;11.00;;;12.50;99.90;;;;;;5048402;28;20538;-69
2023/05/31 03:48:33;;;;;;;12.70;11.40;;;12.40;99.90;;;;;;5048095;28;20204;-69
2023/05/31 03:50:59;;;;;;;12.97;10.90;;;12.40;99.90;;;;;;5048209;28;20220;-69
2023/05/31 03:53:25;;;;;;;13.43;11.80;;;12.40;99.90;;;;;;5047844;28;20178;-69
2023/05/31 03:55:51;;;;;;;12.97;11.60;;;12.40;99.90;;;;;;5047032;28;20415;-69
2023/05/31 03:58:20;;;;;;;11.77;10.60;;;12.40;99.90;;;;;;5063182;28;20224;-69
2023/05/31 04:00:46;;;;;;;13.93;12.43;;;12.40;99.90;;;;;;5048176;28;20436;-69
2023/05/31 04:03:12;;;;;;;14.23;11.60;;;12.40;99.90;;;;;;5047920;28;20419;-69
2023/05/31 04:05:41;;;;;;;13.90;12.43;;;12.30;99.90;;;;;;5035571;28;20523;-69
2023/05/31 04:08:06;;;;;;;14.40;11.63;;;12.20;99.90;;;;;;5026775;28;20256;-69
2023/05/31 04:10:33;;;;;;;15.70;11.87;;;12.10;99.90;;;;;;5028039;28;20949;-69
2023/05/31 04:12:59;;;;;;;12.93;11.53;;;12.20;99.90;;;;;;5027824;28;20189;-69
2023/05/31 04:15:25;;;;;;;15.33;11.93;;;12.20;99.90;;;;;;5028273;28;20418;-69
2023/05/31 04:17:50;;;;;;;14.00;12.43;;;12.20;99.90;;;;;;5027729;28;20449;-69
2023/05/31 04:20:17;;;;;;;14.23;11.20;;;12.30;99.90;;;;;;5028024;28;20186;-69
2023/05/31 04:22:42;;;;;;;12.40;11.03;;;12.30;99.90;;;;;;5027874;28;20218;-69
2023/05/31 04:25:12;;;;;;;17.03;12.57;;;12.30;99.90;;;;;;5027868;28;20449;-69
2023/05/31 04:27:40;;;;;;;13.50;10.90;;;12.30;99.90;;;;;;5027694;28;20654;-69
2023/05/31 04:30:07;;;;;;;13.33;11.93;;;12.30;99.90;;;;;;5031717;28;20810;-69
2023/05/31 04:32:34;;;;;;;14.10;12.30;;;12.30;99.90;;;;;;5047725;28;20424;-69
2023/05/31 04:35:04;;;;;;;14.93;12.00;;;12.30;99.90;;;;;;5047820;28;20438;-69
2023/05/31 04:37:30;;;;;;;14.40;12.57;;;12.50;99.90;;;;;;5047414;28;20986;-69
2023/05/31 04:39:56;;;;;;;14.60;11.73;;;12.40;99.90;;;;;;5047697;28;20416;-69
2023/05/31 04:42:26;;;;;;;13.13;11.83;;;12.50;99.90;;;;;;5048116;28;20558;-69
2023/05/31 04:44:57;;;;;;;14.73;13.10;;;12.50;99.90;;;;;;5051489;28;20741;-69
2023/05/31 04:47:27;;;;;;;15.13;13.53;;;12.70;99.90;;;;;;5041109;28;20518;-69
2023/05/31 04:49:54;;;;;;;19.80;12.70;;;12.80;99.90;;;;;;5028741;28;20465;-69
2023/05/31 04:52:20;;;;;;;15.23;12.23;;;12.90;99.90;;;;;;5031064;28;20774;-69
2023/05/31 04:54:46;;;;;;;18.37;14.63;;;13.00;99.90;;;;;;5028196;28;21821;-69
2023/05/31 04:57:12;;;;;;;17.80;12.97;;;13.10;99.90;;;;;;5031600;28;20440;-69
2023/05/31 04:59:37;;;;;;;15.23;12.60;;;13.20;99.90;;;;;;5030780;28;20417;-69
2023/05/31 05:02:03;;;;;;;14.10;12.60;;;13.20;99.90;;;;;;5029633;28;20189;-69
2023/05/31 05:04:29;;;;;;;16.20;13.20;;;13.30;99.90;;;;;;5029860;28;20252;-69
2023/05/31 05:06:55;;;;;;;19.13;12.97;;;13.40;99.90;;;;;;5031150;28;20206;-69
2023/05/31 05:09:21;;;;;;;15.00;13.40;;;13.50;99.90;;;;;;5031187;28;20178;-69
2023/05/31 05:11:46;;;;;;;17.37;13.63;;;13.60;99.90;;;;;;5031298;28;20210;-69
2023/05/31 05:14:12;;;;;;;15.97;13.23;;;13.70;99.90;;;;;;5030974;28;20457;-68
2023/05/31 05:16:38;;;;;;;17.23;14.80;;;13.80;99.90;;;;;;5031184;28;20232;-68
2023/05/31 05:19:03;;;;;;;21.60;14.00;;;13.80;99.90;;;;;;5026375;28;20189;-69
2023/05/31 05:21:29;;;;;;;18.47;13.40;;;13.90;99.90;;;;;;5030949;28;20840;-69
2023/05/31 05:23:55;;;;;;;16.97;12.87;;;13.90;99.90;;;;;;5030468;28;20209;-69
2023/05/31 05:26:21;;;;;;;16.00;12.67;;;14.10;99.90;;;;;;5029858;28;20213;-68
2023/05/31 05:28:47;;;;;;;14.93;12.40;;;14.10;99.90;;;;;;5031187;28;20522;-69
2023/05/31 05:31:13;;;;;;;17.03;12.90;;;14.10;99.90;;;;;;5043828;28;20487;-69
2023/05/31 05:33:38;;;;;;;16.47;13.30;;;14.10;99.90;;;;;;5050484;28;20176;-69
2023/05/31 05:36:05;;;;;;;17.33;13.47;;;14.10;99.90;;;;;;5050776;28;20178;-70
2023/05/31 05:38:30;;;;;;;15.50;12.23;;;14.30;99.90;;;;;;5050513;28;20181;-69
2023/05/31 05:40:56;;;;;;;18.60;13.80;;;14.30;99.90;;;;;;5049452;28;20420;-70
2023/05/31 05:43:22;;;;;;;15.43;13.80;;;14.30;99.90;;;;;;5050582;28;20423;-68
2023/05/31 05:45:47;;;;;;;14.50;12.50;;;14.40;99.90;;;;;;5049335;28;20236;-69
2023/05/31 05:48:14;;;;;;;19.30;13.20;;;14.50;99.90;;;;;;5050365;28;20214;-68
2023/05/31 05:50:40;;;;;;;16.60;13.60;;;14.70;99.90;;;;;;5045523;28;20233;-69
2023/05/31 05:53:06;;;;;;;16.23;12.17;;;14.80;99.90;;;;;;5030064;28;20420;-68
2023/05/31 05:55:34;;;;;;;13.67;12.23;;;15.00;99.90;;;;;;5030676;28;20775;-69
2023/05/31 05:57:59;;;;;;;15.30;11.63;;;15.20;99.90;;;;;;5027851;28;20260;-68
2023/05/31 06:00:26;;;;;;;14.07;11.80;;;15.40;99.90;;;;;;5029943;28;20424;-69
2023/05/31 06:02:51;;;;;;;16.40;12.00;;;15.60;99.90;;;;;;5028834;28;20635;-68
2023/05/31 06:05:17;;;;;;;12.77;11.37;;;15.90;99.90;;;;;;5028255;28;20506;-69
2023/05/31 06:07:44;;;;;;;13.87;11.50;;;16.10;99.90;;;;;;5027753;28;20228;-68
2023/05/31 06:10:10;;;;;;;15.30;11.83;;;16.20;99.90;;;;;;5029256;28;20206;-70
2023/05/31 06:12:35;;;;;;;18.80;13.63;;;16.30;99.90;;;;;;5029992;28;20694;-70
2023/05/31 06:15:01;;;;;;;15.93;12.40;;;16.50;99.90;;;;;;5028974;28;20692;-69
2023/05/31 06:17:27;;;;;;;19.60;12.30;;;16.70;99.90;;;;;;5028940;28;20210;-69
2023/05/31 06:19:52;;;;;;;12.80;11.33;;;16.80;99.90;;;;;;5026410;28;20256;-69
2023/05/31 06:22:18;;;;;;;15.10;11.93;;;16.90;99.90;;;;;;5026998;28;20206;-69
2023/05/31 06:24:44;;;;;;;15.60;12.90;;;17.00;99.90;;;;;;5028821;28;20187;-69
2023/05/31 06:27:12;;;;;;;13.90;11.43;;;17.10;99.90;;;;;;5023805;28;20289;-69
2023/05/31 06:29:37;;;;;;;14.80;12.30;;;17.20;99.90;;;;;;5020701;28;20205;-69
2023/05/31 06:32:03;;;;;;;16.20;12.13;;;17.20;99.90;;;;;;5026109;28;20410;-69
2023/05/31 06:34:29;;;;;;;14.67;12.27;;;17.30;99.90;;;;;;5026355;28;20178;-68
2023/05/31 06:36:56;;;;;;;12.93;11.50;;;17.40;99.90;;;;;;5026809;28;20520;-69
2023/05/31 06:39:21;;;;;;;18.13;12.70;;;17.40;99.90;;;;;;5022100;28;20239;-69
2023/05/31 06:41:47;;;;;;;14.97;12.73;;;17.50;99.90;;;;;;5027406;28;20421;-67
2023/05/31 06:44:13;;;;;;;13.53;11.50;;;17.60;99.90;;;;;;5016459;28;20210;-69
2023/05/31 06:46:39;;;;;;;14.07;12.07;;;17.60;99.90;;;;;;5018232;28;20206;-70
2023/05/31 06:49:05;;;;;;;13.20;11.80;;;17.70;99.90;;;;;;5027076;28;20194;-69
2023/05/31 06:51:31;;;;;;;18.03;12.03;;;17.80;99.90;;;;;;5024610;28;20453;-70
2023/05/31 06:53:58;;;;;;;13.90;10.37;;;17.90;99.90;;;;;;5013990;28;20191;-70
2023/05/31 06:56:23;;;;;;;17.63;12.33;;;17.90;99.90;;;;;;5011965;28;20199;-69
2023/05/31 06:58:49;;;;;;;13.10;10.90;;;17.90;99.90;;;;;;5008937;28;20418;-69
2023/05/31 07:01:15;;;;;;;12.33;9.80;;;18.00;99.90;;;;;;5008985;28;20194;-69
2023/05/31 07:03:40;;;;;;;13.47;10.13;;;18.10;99.90;;;;;;5018446;28;20191;-68
2023/05/31 07:06:06;;;;;;;12.00;9.90;;;18.20;99.90;;;;;;5018293;28;20209;-69
2023/05/31 07:08:32;;;;;;;12.70;10.90;;;18.20;99.90;;;;;;5013346;28;20205;-69
2023/05/31 07:10:57;;;;;;;13.60;10.33;;;18.30;99.90;;;;;;5007640;28;20636;-69
2023/05/31 07:13:23;;;;;;;14.30;10.50;;;18.50;99.90;;;;;;5008704;28;20608;-69
2023/05/31 07:15:49;;;;;;;14.27;9.03;;;18.50;99.90;;;;;;5008849;28;20183;-68
2023/05/31 07:18:14;;;;;;;14.53;9.90;;;18.50;99.90;;;;;;5008944;28;20210;-69
2023/05/31 07:20:40;;;;;;;11.50;9.50;;;18.60;99.90;;;;;;5007693;28;20555;-69
2023/05/31 07:23:06;;;;;;;16.80;10.30;;;18.60;99.90;;;;;;5008999;28;20171;-70
2023/05/31 07:25:31;;;;;;;12.03;10.57;;;18.60;99.90;;;;;;5009230;28;20184;-68
2023/05/31 07:27:57;;;;;;;11.23;8.93;;;18.60;99.90;;;;;;5009011;28;20281;-69
2023/05/31 07:30:23;;;;;;;14.60;9.90;;;18.60;99.90;;;;;;5019325;28;20206;-69
2023/05/31 07:32:49;;;;;;;15.77;9.60;;;18.60;99.90;;;;;;5048612;28;20182;-69
2023/05/31 07:35:14;;;;;;;11.37;9.93;;;18.60;99.90;;;;;;5048413;28;20842;-70
2023/05/31 07:37:40;;;;;;;14.93;9.70;;;18.70;99.90;;;;;;5046846;28;20206;-69
2023/05/31 07:40:06;;;;;;;12.13;8.93;;;18.80;99.90;;;;;;5045885;28;20184;-69
2023/05/31 07:42:33;;;;;;;10.57;9.47;;;18.70;99.90;;;;;;5015500;28;20187;-69
2023/05/31 07:44:59;;;;;;;14.20;8.83;;;18.70;99.90;;;;;;5009068;28;20422;-69
2023/05/31 07:47:25;;;;;;;13.67;9.07;;;18.80;99.90;;;;;;5009604;28;20959;-69
2023/05/31 07:49:51;;;;;;;12.90;9.30;;;18.90;99.90;;;;;;5008161;28;20585;-70
2023/05/31 07:52:21;;;;;;;15.37;7.90;;;19.00;99.90;;;;;;5007407;28;20182;-69
2023/05/31 07:54:48;;;;;;;19.77;8.00;;;19.00;99.90;;;;;;5007434;28;20421;-68
2023/05/31 07:57:15;;;;;;;14.00;7.90;;;19.10;99.90;;;;;;5007475;28;20488;-69
2023/05/31 07:59:40;;;;;;;13.77;7.47;;;19.20;99.90;;;;;;5006203;28;20484;-68
2023/05/31 08:02:06;;;;;;;8.27;6.87;;;19.20;99.90;;;;;;5007559;28;20805;-68
2023/05/31 08:04:32;;;;;;;12.03;7.23;;;19.20;99.90;;;;;;5010556;28;20209;-69
2023/05/31 08:06:57;;;;;;;11.60;8.60;;;19.10;99.90;;;;;;5027634;28;20298;-69
2023/05/31 08:09:23;;;;;;;9.23;8.23;;;19.00;99.90;;;;;;5027856;28;20186;-69
2023/05/31 08:11:51;;;;;;;9.03;7.40;;;18.90;99.90;;;;;;5027851;28;20210;-69
2023/05/31 08:14:17;;;;;;;9.23;7.20;;;18.80;99.90;;;;;;5027842;28;20185;-69
2023/05/31 08:16:42;;;;;;;13.40;8.23;;;18.70;99.90;;;;;;5027865;28;20433;-68
2023/05/31 08:19:08;;;;;;;10.97;7.00;;;18.70;99.90;;;;;;5031527;28;20232;-69
2023/05/31 08:21:36;;;;;;;9.07;6.40;;;18.80;99.90;;;;;;5031724;28;20186;-70
2023/05/31 08:24:06;;;;;;;8.57;6.20;;;18.90;99.90;;;;;;5031704;28;20174;-69
2023/05/31 08:26:32;;;;;;;7.67;6.87;;;18.90;99.90;;;;;;5031841;28;20535;-69
2023/05/31 08:28:58;;;;;;;8.37;7.03;;;19.00;99.90;;;;;;5031820;28;20413;-69
2023/05/31 08:31:24;;;;;;;11.30;6.97;;;19.10;99.90;;;;;;5031519;28;21004;-69
2023/05/31 08:33:58;;;;;;;8.70;7.20;;;19.10;99.90;;;;;;5031725;28;20413;-69
2023/05/31 08:36:25;;;;;;;9.70;6.40;;;19.20;99.90;;;;;;5031580;28;20199;-69
2023/05/31 08:38:51;;;;;;;10.83;8.00;;;19.30;99.90;;;;;;5031218;28;20813;-69
2023/05/31 08:41:18;;;;;;;13.33;7.47;;;19.30;99.90;;;;;;5031426;28;20484;-69
2023/05/31 08:43:46;;;;;;;8.73;7.10;;;19.40;99.90;;;;;;5031530;28;20822;-70
2023/05/31 08:46:13;;;;;;;10.33;6.37;;;19.50;99.90;;;;;;5031532;28;20413;-69
2023/05/31 08:49:19;;;;;;;7.20;5.73;;;19.50;99.90;;;;;;5031492;28;20409;-69
2023/05/31 08:51:45;;;;;;;7.90;6.07;;;19.60;99.90;;;;;;5031138;28;20906;-69
2023/05/31 08:54:12;;;;;;;10.67;5.93;;;19.80;99.90;;;;;;5031391;28;20451;-69
2023/05/31 08:56:39;;;;;;;7.80;6.00;;;19.80;99.90;;;;;;5031380;28;20433;-69
2023/05/31 08:59:09;;;;;;;6.87;5.90;;;19.90;99.90;;;;;;5031552;28;20409;-69
2023/05/31 09:01:36;;;;;;;6.83;5.20;;;20.00;99.90;;;;;;5031203;28;20431;-69
2023/05/31 09:04:05;;;;;;;7.13;5.40;;;20.10;99.90;;;;;;5031163;28;20910;-69
2023/05/31 09:06:31;;;;;;;11.37;5.47;;;20.20;99.90;;;;;;5031062;28;20972;-69
2023/05/31 09:08:57;;;;;;;11.50;5.57;;;20.40;99.90;;;;;;5031179;28;20493;-70
2023/05/31 09:11:23;;;;;;;9.67;5.23;;;20.50;99.90;;;;;;5030979;28;21041;-68
2023/05/31 09:13:49;;;;;;;6.90;5.10;;;20.70;99.90;;;;;;5029678;28;20248;-69
2023/05/31 09:16:15;;;;;;;7.07;5.37;;;20.80;99.10;;;;;;5031071;28;20902;-69
2023/05/31 09:18:41;;;;;;;6.83;5.70;;;20.90;99.50;;;;;;5029548;28;20259;-68
2023/05/31 09:21:12;;;;;;;9.97;5.73;;;21.00;99.90;;;;;;5029564;28;20421;-69
2023/05/31 09:23:37;;;;;;;8.67;5.43;;;21.00;99.90;;;;;;5030818;28;20647;-69
2023/05/31 09:26:07;;;;;;;14.43;5.70;;;21.10;99.90;;;;;;5030836;28;20486;-68
2023/05/31 09:28:33;;;;;;;5.93;4.33;;;21.20;99.90;;;;;;5028920;28;20193;-70
2023/05/31 09:31:03;;;;;;;8.23;4.50;;;21.30;97.50;;;;;;5030427;28;20452;-70
2023/05/31 09:33:55;;;;;;;5.60;4.27;;;21.40;97.80;;;;;;5030393;28;20410;-69
2023/05/31 09:36:42;;;;;;;13.30;5.60;;;21.50;98.00;;;;;;5029632;28;20587;-69
2023/05/31 09:39:08;;;;;;;5.80;4.67;;;21.70;98.40;;;;;;5029877;28;20414;-69
2023/05/31 09:41:35;;;;;;;7.10;4.80;;;21.80;97.90;;;;;;5030245;28;20428;-69
2023/05/31 09:44:01;;;;;;;4.40;3.63;;;21.80;98.20;;;;;;5030350;28;20651;-69
2023/05/31 09:46:27;;;;;;;9.37;4.43;;;21.80;96.60;;;;;;5030378;28;20952;-69
2023/05/31 09:49:04;;;;;;;5.53;4.07;;;21.90;96.70;;;;;;5030172;28;20409;-69
2023/05/31 09:51:33;;;;;;;6.07;4.43;;;22.00;97.40;;;;;;5030226;28;20464;-69
2023/05/31 09:54:10;;;;;;;6.43;4.30;;;22.10;95.80;;;;;;5030159;28;20414;-69
2023/05/31 09:56:37;;;;;;;6.20;4.40;;;22.10;96.50;;;;;;5030449;28;20452;-69
2023/05/31 09:59:04;;;;;;;4.43;3.70;;;22.20;97.80;;;;;;5030120;28;20816;-69
2023/05/31 10:01:31;;;;;;;7.30;3.27;;;22.30;95.20;;;;;;5028861;28;20773;-69
2023/05/31 10:03:59;;;;;;;6.67;3.50;;;22.40;92.90;;;;;;5029930;28;20417;-69
2023/05/31 10:06:26;;;;;;;5.43;4.07;;;22.50;92.10;;;;;;5029914;28;20890;-69
2023/05/31 10:08:52;;;;;;;6.87;3.60;;;22.50;92.30;;;;;;5030133;28;20504;-69
2023/05/31 10:11:25;;;;;;;7.53;3.50;;;22.60;93.00;;;;;;5028584;28;20557;-69
2023/05/31 10:13:56;;;;;;;3.57;3.27;;;22.60;94.40;;;;;;5012333;28;20186;-69
2023/05/31 10:16:24;;;;;;;6.33;3.93;;;22.70;93.20;;;;;;5030016;28;20432;-69
2023/05/31 10:18:52;;;;;;;3.83;3.50;;;22.70;93.70;;;;;;5029735;28;20409;-69
2023/05/31 10:21:25;;;;;;;4.80;3.07;;;22.80;92.70;;;;;;5029801;28;20512;-69
2023/05/31 10:24:08;;;;;;;3.73;3.20;;;22.90;92.50;;;;;;5029767;28;20825;-69
2023/05/31 10:27:10;;;;;;;5.10;2.90;;;23.00;85.50;;;;;;5029829;28;20437;-69
2023/05/31 10:29:51;;;;;;;6.50;3.40;;;23.00;86.40;;;;;;5017699;28;20536;-69
2023/05/31 10:32:22;;;;;;;6.60;4.00;;;23.00;87.80;;;;;;5019113;28;20529;-69
2023/05/31 10:34:49;;;;;;;5.70;3.40;;;23.00;90.70;;;;;;5027579;28;20433;-69
2023/05/31 10:37:15;;;;;;;5.70;2.80;;;23.00;89.00;;;;;;5023433;28;20441;-69
2023/05/31 10:39:55;;;;;;;6.60;3.37;;;23.10;85.10;;;;;;5027874;28;20507;-69
2023/05/31 10:42:38;;;;;;;6.00;3.20;;;23.10;86.60;;;;;;5029491;28;20647;-69
2023/05/31 10:45:12;;;;;;;4.43;2.90;;;23.10;83.30;;;;;;5022791;28;20508;-69
2023/05/31 10:47:56;;;;;;;4.70;2.73;;;23.20;83.80;;;;;;5028875;28;20739;-69
2023/05/31 10:50:23;;;;;;;5.00;3.03;;;23.20;83.20;;;;;;5029116;28;20499;-69
2023/05/31 10:52:52;;;;;;;4.87;2.80;;;23.30;83.80;;;;;;5029093;28;20421;-69
2023/05/31 10:55:24;;;;;;;3.73;2.93;;;23.40;84.70;;;;;;5029679;28;20432;-69
2023/05/31 10:57:58;;;;;;;4.23;2.47;;;23.40;87.60;;;;;;5028671;28;20441;-69
2023/05/31 11:00:25;;;;;;;5.97;3.13;;;23.50;82.50;;;;;;5028896;28;20420;-70
2023/05/31 11:02:58;;;;;;;3.83;2.90;;;23.50;80.20;;;;;;5028752;28;20421;-70
2023/05/31 11:05:26;;;;;;;5.33;2.80;;;23.60;87.00;;;;;;5027746;28;20456;-69
2023/05/31 11:07:53;;;;;;;8.93;3.20;;;23.60;84.80;;;;;;5028536;28;20441;-69
2023/05/31 11:10:27;;;;;;;6.00;2.90;;;23.60;82.40;;;;;;5028580;28;20824;-69
2023/05/31 11:12:56;;;;;;;2.93;2.63;;;23.60;79.70;;;;;;5020923;28;20508;-69
2023/05/31 11:15:22;;;;;;;6.13;2.70;;;23.60;78.40;;;;;;5028761;28;20839;-70
2023/05/31 11:17:54;;;;;;;4.67;2.57;;;23.60;80.40;;;;;;5028316;28;20443;-69
2023/05/31 11:20:22;;;;;;;6.53;2.77;;;23.70;78.40;;;;;;5028591;28;20615;-69
2023/05/31 11:22:47;;;;;;;3.63;2.60;;;23.70;79.60;;;;;;5028592;28;20461;-69
2023/05/31 11:25:20;;;;;;;5.93;3.30;;;23.80;79.50;;;;;;5028354;28;20671;-70
2023/05/31 11:27:48;;;;;;;2.90;2.60;;;23.80;77.50;;;;;;5028192;28;20699;-69
2023/05/31 11:30:16;;;;;;;4.93;3.30;;;23.80;80.60;;;;;;5033027;28;20543;-69
2023/05/31 11:32:42;;;;;;;4.70;2.90;;;23.80;81.80;;;;;;5029085;28;20425;-69
2023/05/31 11:35:14;;;;;;;4.30;2.63;;;23.90;77.80;;;;;;5022980;28;20902;-69
2023/05/31 11:37:42;;;;;;;4.97;2.70;;;23.90;75.70;;;;;;5027838;28;20475;-69
2023/05/31 11:40:12;;;;;;;4.83;3.00;;;23.90;78.90;;;;;;5021612;28;20872;-69
2023/05/31 11:42:40;;;;;;;8.47;3.17;;;23.90;76.90;;;;;;5026676;28;20971;-70
2023/05/31 11:45:09;;;;;;;6.27;3.73;;;24.00;81.30;;;;;;5028150;28;20881;-70
2023/05/31 11:47:44;;;;;;;6.03;3.30;;;24.00;81.80;;;;;;5027857;28;20433;-69
2023/05/31 11:50:16;;;;;;;4.40;3.30;;;24.10;83.30;;;;;;5028299;28;20558;-69
2023/05/31 11:52:42;;;;;;;8.10;3.40;;;24.20;83.40;;;;;;5028173;28;20970;-69
2023/05/31 11:55:09;;;;;;;7.47;3.53;;;24.20;85.10;;;;;;5028234;28;20413;-69
2023/05/31 11:57:46;;;;;;;8.07;3.03;;;24.20;84.20;;;;;;5028024;28;20572;-69
2023/05/31 12:00:15;;;;;;;3.77;2.50;;;24.20;79.70;;;;;;5028201;28;20424;-69
2023/05/31 12:02:44;;;;;;;7.07;2.80;;;24.20;75.40;;;;;;5028228;28;20444;-68
2023/05/31 12:05:15;;;;;;;5.00;2.73;;;24.10;74.30;;;;;;5026569;28;20445;-69
2023/05/31 12:07:41;;;;;;;6.20;2.60;;;24.10;76.30;;;;;;5024500;28;20458;-69
2023/05/31 12:10:08;;;;;;;3.47;2.30;;;24.20;77.70;;;;;;5018493;28;20456;-70
2023/05/31 12:12:35;;;;;;;3.70;2.60;;;24.20;78.80;;;;;;5020670;28;20419;-69
2023/05/31 12:15:03;;;;;;;4.43;3.10;;;24.30;78.20;;;;;;5024589;28;20433;-70
2023/05/31 12:17:32;;;;;;;8.07;3.20;;;24.30;82.40;;;;;;5019487;28;20433;-69
2023/05/31 12:19:59;;;;;;;5.20;3.00;;;24.40;84.60;;;;;;5008292;28;20414;-70
2023/05/31 12:22:26;;;;;;;5.00;3.40;;;24.50;84.70;;;;;;5016153;28;20890;-69
2023/05/31 12:24:54;;;;;;;7.00;3.20;;;24.60;83.00;;;;;;5010503;28;20433;-69
2023/05/31 12:27:22;;;;;;;4.67;3.10;;;24.70;84.40;;;;;;5008147;28;20484;-69
2023/05/31 12:29:47;;;;;;;6.20;3.60;;;24.80;80.00;;;;;;5021563;28;20425;-70
2023/05/31 12:32:13;;;;;;;7.50;3.47;;;24.70;81.00;;;;;;5048266;28;20491;-69
2023/05/31 12:34:39;;;;;;;6.30;3.43;;;24.70;82.60;;;;;;5047645;28;20269;-69
2023/05/31 12:37:06;;;;;;;5.00;3.60;;;24.80;81.90;;;;;;5047851;28;20563;-70
2023/05/31 12:39:33;;;;;;;5.13;3.53;;;24.70;82.70;;;;;;5047745;28;20419;-69